Latest Weather Observations for Albion Park

IDN60801

Issued at 5:23 pm EDT Thursday 28 January 2021 (issued every 10 minutes, with the page automatically refreshed every 10 minutes)

About weather observations | Map of weather stations | Latest weather observations for NSW | Other Formats
Station Details ID: 068241 Name: SHELLHARBOUR AIRPORT Lat: -34.56 Lon: 150.79 Height: 8.0 m
Data from the previous 72 hours. | See also: Recent months at Albion Park
Date/Time
EDT
Temp
°C
App
Temp
°C
Dew
Point
°C
Rel
Hum
%
Delta-T
°C
Wind Press
QNH
hPa
Press
MSL
hPa
Rain since
9am
mm
Dir  Spd
km/h
Gust
km/h
Spd
kts
Gust
kts
28/05:00pm 20.1 19.1 15.5 75 2.7 S 15 19 8 10 1021.2 1021.2 0.0
28/04:30pm 20.1 18.8 15.9 77 2.5 S 17 22 9 12 1021.5 1021.5 0.0
28/04:00pm 21.2 20.3 14.8 67 3.8 SE 13 19 7 10 1021.5 1021.5 0.0
28/03:30pm 21.4 20.4 15.5 69 3.5 SE 15 24 8 13 1021.6 1021.6 0.0
28/03:00pm 21.7 19.4 14.1 62 4.4 ESE 19 28 10 15 1021.6 1021.6 0.0
28/02:30pm 21.6 19.7 14.3 63 4.3 SE 17 32 9 17 1022.0 1022.0 0.0
28/02:00pm 20.7 18.5 15.0 70 3.3 SE 20 32 11 17 1022.0 1022.0 0.0
28/01:30pm 21.7 18.9 15.3 67 3.8 SE 24 35 13 19 1021.9 1021.9 0.0
28/01:00pm 22.4 19.7 15.7 66 4.0 SE 24 35 13 19 1022.2 1022.2 0.0
28/12:30pm 22.5 20.8 15.8 66 4.0 SE 19 33 10 18 1022.3 1022.3 0.0
28/12:00pm 22.1 19.1 14.7 63 4.3 ESE 24 33 13 18 1022.6 1022.6 0.0
28/11:30am 21.9 19.9 15.0 65 4.1 SE 19 28 10 15 1022.6 1022.6 0.0
28/11:00am 21.4 19.2 14.8 66 3.9 ESE 20 32 11 17 1022.5 1022.5 0.0
28/10:30am 21.7 19.9 14.4 63 4.3 SE 17 26 9 14 1022.4 1022.4 0.0
28/10:00am 21.6 19.9 14.7 65 4.0 SE 17 26 9 14 1022.3 1022.3 0.0
28/09:30am 21.0 18.7 14.6 67 3.7 SE 20 33 11 18 1022.0 1022.0 0.0
28/09:00am 20.9 19.1 15.4 71 3.3 ESE 19 26 10 14 1021.9 1021.9 6.8
28/08:30am 21.1 19.5 15.9 72 3.1 ESE 19 32 10 17 1021.7 1021.7 6.8
28/08:00am 21.5 20.0 16.2 72 3.2 SE 19 26 10 14 1021.3 1021.3 6.8
28/07:30am 20.7 19.4 15.9 74 2.9 SE 17 28 9 15 1021.0 1021.0 6.8
28/07:00am 20.7 19.5 16.1 75 2.8 SE 17 26 9 14 1020.7 1020.7 6.8
28/06:30am 20.5 19.8 15.5 73 3.0 SE 13 22 7 12 1020.5 1020.5 6.8
28/06:00am 20.5 19.5 15.7 74 2.9 SE 15 24 8 13 1020.1 1020.1 6.8
28/05:30am 20.6 20.1 16.0 75 2.8 SE 13 24 7 13 1019.7 1019.7 6.6
28/05:00am 20.5 20.5 16.3 77 2.5 SE 11 19 6 10 1019.2 1019.2 6.6
28/04:30am 20.3 20.4 16.5 79 2.3 SE 11 17 6 9 1018.9 1018.9 6.6
28/04:00am 19.9 19.9 16.3 80 2.2 SSE 11 17 6 9 1019.1 1019.1 6.6
28/03:30am 20.2 19.8 16.2 78 2.4 SE 13 17 7 9 1019.0 1019.0 6.6
28/03:00am 20.4 20.3 17.0 81 2.1 SE 13 20 7 11 1019.2 1019.2 6.6
28/02:30am 19.5 20.4 17.5 88 1.2 SSE 9 13 5 7 1019.4 1019.4 6.6
28/02:00am 19.8 20.2 17.2 85 1.6 SSE 11 19 6 10 1019.3 1019.3 6.6
28/01:30am 19.2 20.3 17.9 92 0.8 SSE 9 11 5 6 1019.4 1019.4 6.6
28/01:00am 18.8 20.5 18.6 99 0.1 SSE 7 13 4 7 1019.3 1019.3 6.6
28/12:56am 18.8 20.5 18.6 99 0.1 SE 7 13 4 7 1019.3 1019.3 6.6
28/12:30am 19.0 18.6 18.8 99 0.1 SE 19 28 10 15 1019.5 1019.5 6.6
28/12:28am 19.0 18.6 18.8 99 0.1 SE 19 28 10 15 1019.5 1019.5 6.6
28/12:00am 19.2 20.0 19.0 99 0.1 SE 13 20 7 11 1019.5 1019.5 6.2
 
Date/Time
EDT
Temp
°C
App
Temp
°C
Dew
Point
°C
Rel
Hum
%
Delta-T
°C
Wind Press
QNH
hPa
Press
MSL
hPa
Rain since
9am
mm
Dir  Spd
km/h
Gust
km/h
Spd
kts
Gust
kts
27/11:33pm 19.1 20.7 19.1 100 0.0 WNW 9 28 5 15 1019.4 1019.4 4.6
27/11:32pm 19.0 20.9 19.0 100 0.0 NW 7 28 4 15 1019.3 1019.3 4.6
27/11:30pm 18.9 20.8 18.9 100 0.0 NNW 7 13 4 7 1019.3 1019.3 4.4
27/11:00pm 18.9 20.7 18.7 99 0.1 SW 7 11 4 6 1019.3 1019.3 4.0
27/10:42pm 18.5 19.7 18.3 99 0.1 SSE 9 13 5 7 1019.3 1019.3 4.0
27/10:40pm 18.5 19.7 18.3 99 0.1 SSE 9 13 5 7 1019.3 1019.3 4.0
27/10:30pm 18.2 18.5 18.0 99 0.1 SE 13 26 7 14 1019.2 1019.2 4.0
27/10:18pm 18.5 19.1 18.5 100 0.0 S 13 28 7 15 1019.5 1019.5 3.8
27/10:00pm 18.5 19.4 18.5 100 0.0 WNW 11 13 6 7 1019.1 1019.1 2.6
27/09:58pm 18.6 20.0 18.6 100 0.0 WNW 9 13 5 7 1019.1 1019.1 2.6
27/09:54pm 18.5 19.8 18.5 100 0.0 WNW 9 13 5 7 1019.1 1019.1 2.6
27/09:39pm 18.5 20.1 18.3 99 0.1 SW 7 9 4 5 1019.0 1019.0 2.6
27/09:30pm 18.3 19.4 18.1 99 0.1 SSW 9 13 5 7 1018.9 1018.9 2.6
27/09:19pm 18.3 20.0 18.1 99 0.1 S 6 9 3 5 1018.9 1018.9 2.6
27/09:08pm 18.2 19.3 18.0 99 0.1 SSE 9 15 5 8 1018.7 1018.7 2.4
27/09:05pm 18.2 18.9 18.0 99 0.1 SSE 11 17 6 9 1018.7 1018.7 2.4
27/09:00pm 18.2 18.5 18.0 99 0.1 S 13 17 7 9 1018.6 1018.6 2.4
27/08:48pm 18.2 19.3 17.9 98 0.2 S 9 15 5 8 1018.6 1018.6 2.2
27/08:30pm 18.2 18.9 18.0 99 0.1 SSW 11 15 6 8 1018.4 1018.4 2.2
27/08:25pm 18.0 18.6 17.8 99 0.1 SSW 11 15 6 8 1018.3 1018.3 2.2
27/08:20pm 18.1 18.8 17.9 99 0.1 S 11 13 6 7 1018.2 1018.2 2.2
27/08:00pm 18.1 19.2 17.9 99 0.1 S 9 13 5 7 1018.2 1018.2 2.0
27/07:36pm 18.5 19.2 17.9 96 0.4 S 11 13 6 7 1017.9 1017.9 1.6
27/07:30pm 18.4 19.3 17.6 95 0.5 SSW 9 13 5 7 1017.7 1017.7 1.4
27/07:09pm 18.4 18.6 17.6 95 0.5 S 13 19 7 10 1017.4 1017.4 1.4
27/07:00pm 18.4 18.0 17.2 93 0.7 S 15 20 8 11 1017.2 1017.2 1.4
27/06:59pm 18.4 18.0 17.2 93 0.7 S 15 20 8 11 1017.2 1017.2 1.4
27/06:30pm 18.6 19.5 17.6 94 0.6 SW 9 11 5 6 1016.5 1016.5 1.2
27/06:00pm 18.6 18.3 17.3 92 0.8 S 15 22 8 12 1016.3 1016.3 1.0
27/05:39pm 19.3 19.3 17.1 87 1.3 SSW 13 20 7 11 1015.9 1015.9 0.6
27/05:30pm 19.9 20.4 17.5 86 1.5 SSW 11 19 6 10 1015.8 1015.8 0.4
27/05:00pm 19.9 20.0 17.5 86 1.5 SSW 13 24 7 13 1015.7 1015.7 0.2
27/04:51pm 19.8 19.0 17.2 85 1.6 SSW 17 28 9 15 1015.7 1015.7 0.2
27/04:40pm 20.3 18.7 16.1 77 2.5 SSW 19 32 10 17 1015.9 1015.9 0.0
27/04:30pm 20.2 19.2 16.6 80 2.2 S 17 26 9 14 1015.8 1015.8 0.0
27/04:00pm 20.2 19.2 16.6 80 2.2 S 17 26 9 14 1015.8 1015.8 0.0
27/03:30pm 20.5 20.0 16.9 80 2.2 SSE 15 20 8 11 1015.8 1015.8 0.0
27/03:17pm 20.5 19.2 16.9 80 2.2 SSE 19 33 10 18 1015.8 1015.8 0.0
27/03:00pm 21.0 19.5 16.8 77 2.6 S 20 35 11 19 1015.7 1015.7 0.0
27/02:57pm 21.0 20.0 16.6 76 2.7 S 17 28 9 15 1015.7 1015.7 0.0
27/02:30pm 21.5 18.8 16.7 74 2.9 S 26 44 14 24 1015.4 1015.4 0.0
27/02:00pm 22.0 19.9 17.2 74 2.9 S 24 39 13 21 1015.5 1015.5 0.0
27/01:47pm 21.6 18.7 17.0 75 2.8 S 28 43 15 23 1015.3 1015.3 0.0
27/01:30pm 21.5 18.0 17.5 78 2.5 S 32 43 17 23 1015.3 1015.3 0.0
27/01:00pm 21.4 18.8 17.8 80 2.2 S 28 44 15 24 1015.2 1015.2 0.0
27/12:30pm 21.7 19.5 18.7 83 1.9 S 28 44 15 24 1015.1 1015.1 0.0
27/12:00pm 21.1 20.3 18.5 85 1.6 SSE 20 35 11 19 1014.9 1014.9 0.0
27/11:30am 21.4 20.7 18.6 84 1.8 SSE 20 32 11 17 1014.6 1014.6 0.0
27/11:00am 21.2 21.2 18.9 87 1.4 SSE 17 24 9 13 1014.5 1014.5 0.0
27/10:30am 20.9 20.9 19.0 89 1.2 SSE 17 22 9 12 1014.1 1014.1 0.0
27/10:00am 20.7 20.6 18.8 89 1.2 SSE 17 28 9 15 1013.6 1013.6 0.0
27/09:30am 20.4 21.8 19.6 95 0.5 SSE 11 17 6 9 1013.2 1013.2 0.0
27/09:00am 20.8 20.8 18.9 89 1.2 SSE 17 30 9 16 1012.8 1012.8 1.4
27/08:53am 20.7 21.4 18.8 89 1.2 SSE 13 26 7 14 1012.7 1012.7 1.4
27/08:48am 20.7 20.7 19.0 90 1.1 SSE 17 28 9 15 1012.7 1012.7 1.4
27/08:30am 20.8 20.8 18.9 89 1.2 SSE 17 24 9 13 1012.5 1012.5 1.4
27/08:06am 20.7 20.5 18.5 87 1.4 SSE 17 28 9 15 1012.1 1012.1 1.4
27/08:02am 20.8 20.7 18.7 88 1.3 SSE 17 26 9 14 1012.0 1012.0 1.4
27/08:00am 20.8 21.0 18.6 87 1.4 SSE 15 20 8 11 1011.9 1011.9 1.4
27/07:30am 21.0 20.8 18.6 86 1.5 SSE 17 33 9 18 1011.3 1011.3 1.4
27/07:00am 21.6 20.9 18.2 81 2.1 SSW 19 28 10 15 1010.7 1010.7 1.4
27/06:30am 21.5 21.5 18.1 81 2.1 SW 15 28 8 15 1010.0 1010.0 1.4
27/06:19am 21.5 21.4 17.9 80 2.2 SW 15 24 8 13 1009.9 1009.9 1.4
27/06:00am 21.3 21.3 18.1 82 2.0 SW 15 26 8 14 1009.6 1009.6 1.4
27/05:30am 21.2 20.9 18.2 83 1.9 SW 17 22 9 12 1009.0 1009.0 1.4
27/05:00am 21.1 20.4 18.3 84 1.7 SSW 19 28 10 15 1008.6 1008.6 1.4
27/04:30am 21.5 21.8 18.7 84 1.8 SW 15 20 8 11 1008.2 1008.2 1.4
27/04:23am 21.4 21.2 18.6 84 1.8 SSW 17 24 9 13 1008.1 1008.1 1.4
27/04:00am 21.6 21.5 18.8 84 1.8 SSW 17 28 9 15 1007.7 1007.7 1.4
27/03:30am 22.0 22.6 19.4 85 1.7 SSW 15 22 8 12 1007.8 1007.8 1.4
27/03:00am 22.0 22.6 20.3 90 1.1 S 17 24 9 13 1007.5 1007.5 1.4
27/02:45am 22.2 23.8 20.8 92 0.9 SSE 13 19 7 10 1007.5 1007.5 1.4
27/02:30am 22.2 24.0 21.2 94 0.7 SSE 13 19 7 10 1007.3 1007.3 1.4
27/02:00am 22.4 24.3 21.4 94 0.7 SSE 13 19 7 10 1007.0 1007.0 1.4
27/01:54am 22.5 24.5 21.5 94 0.7 SSE 13 19 7 10 1007.0 1007.0 1.4
27/01:30am 22.9 25.0 21.7 93 0.8 SSE 13 19 7 10 1006.6 1006.6 1.4
27/01:00am 23.0 26.0 22.0 94 0.7 SSE 9 11 5 6 1006.6 1006.6 1.4
27/12:30am 22.7 26.2 22.2 97 0.3 SSE 7 11 4 6 1006.5 1006.5 1.4
27/12:00am 22.7 26.2 22.2 97 0.3 SSE 7 9 4 5 1006.5 1006.5 1.4
 
Date/Time
EDT
Temp
°C
App
Temp
°C
Dew
Point
°C
Rel
Hum
%
Delta-T
°C
Wind Press
QNH
hPa
Press
MSL
hPa
Rain since
9am
mm
Dir  Spd
km/h
Gust
km/h
Spd
kts
Gust
kts
26/11:30pm 22.8 25.5 22.1 96 0.5 SSW 11 15 6 8 1006.3 1006.3 1.2
26/11:00pm 22.8 25.3 21.8 94 0.7 S 11 17 6 9 1006.1 1006.1 1.2
26/10:30pm 23.3 26.3 21.9 92 0.9 E 9 11 5 6 1006.2 1006.2 1.2
26/10:00pm 23.2 27.2 22.0 93 0.8 S 4 11 2 6 1006.0 1006.0 1.0
26/09:30pm 23.4 25.9 21.8 91 1.1 SE 11 15 6 8 1005.8 1005.8 1.0
26/09:00pm 23.4 23.7 21.5 89 1.3 SSE 22 33 12 18 1005.3 1005.3 0.8
26/08:30pm 26.6 26.7 20.4 69 4.1 SSE 20 32 11 17 1004.3 1004.3 0.0
26/08:00pm 27.0 29.0 20.8 69 4.1 E 11 15 6 8 1003.1 1003.1 0.0
26/07:30pm 27.5 28.8 20.8 67 4.4 E 15 20 8 11 1001.6 1001.6 0.0
26/07:00pm 28.4 31.8 20.9 64 5.0 ESE 4 13 2 7 1000.7 1000.7 0.0
26/06:30pm 28.3 30.8 21.1 65 4.8 ESE 9 13 5 7 1000.1 1000.1 0.0
26/06:00pm 28.5 29.8 20.2 60 5.5 E 13 17 7 9 999.9 999.9 0.0
26/05:30pm 29.8 32.1 20.6 57 6.1 SE 9 13 5 7 999.7 999.7 0.0
26/05:00pm 31.7 33.2 20.6 51 7.4 E 13 20 7 11 999.6 999.6 0.0
26/04:30pm 32.8 34.2 21.0 50 7.9 ENE 15 24 8 13 999.6 999.6 0.0
26/04:00pm 34.2 35.2 20.2 43 9.4 ENE 15 30 8 16 999.1 999.1 0.0
26/03:30pm 34.6 34.1 19.0 39 10.3 NE 20 28 11 15 999.3 999.3 0.0
26/03:00pm 32.9 33.2 20.4 47 8.4 NE 19 26 10 14 999.4 999.4 0.0
26/02:30pm 33.4 33.6 20.5 46 8.6 ENE 20 28 11 15 999.3 999.3 0.0
26/02:00pm 34.6 34.4 20.6 44 9.4 ENE 22 30 12 16 999.3 999.3 0.0
26/01:30pm 38.6 35.5 14.4 24 15.1 W 24 35 13 19 999.4 999.4 0.0
26/01:00pm 37.5 34.0 13.5 24 14.8 W 24 35 13 19 999.5 999.5 0.0
26/12:30pm 37.4 35.4 14.0 24 14.5 N 17 24 9 13 999.8 999.8 0.0
26/12:00pm 37.1 35.1 13.8 25 14.4 WNW 17 28 9 15 1000.0 1000.0 0.0
26/11:30am 36.7 35.5 14.1 26 14.0 WNW 13 26 7 14 1000.0 1000.0 0.0
26/11:00am 35.9 35.8 14.0 27 13.5 NNE 7 13 4 7 1000.2 1000.2 0.0
26/10:30am 34.6 34.7 14.0 29 12.6 N 6 11 3 6 1000.6 1000.6 0.0
26/10:00am 33.1 32.7 15.1 33 11.2 NW 11 22 6 12 1000.8 1000.8 0.0
26/09:30am 30.4 32.2 18.8 50 7.5 E 7 11 4 6 1001.1 1001.1 0.0
26/09:00am 27.9 29.9 20.7 65 4.8 E 11 13 6 7 1001.5 1001.5 0.0
26/08:30am 25.5 28.5 22.0 81 2.3 ENE 9 13 5 7 1001.5 1001.5 0.0
26/08:00am 23.5 26.5 21.2 87 1.5 E 7 11 4 6 1001.5 1001.5 0.0
26/07:30am 20.8 24.8 20.5 98 0.2 CALM 0 0 0 0 1001.6 1001.6 0.0
26/07:00am 18.5 20.7 18.3 99 0.1 W 4 6 2 3 1001.5 1001.5 0.0
26/06:30am 17.8 20.1 17.6 99 0.1 W 2 6 1 3 1001.5 1001.5 0.0
26/06:00am 17.9 19.4 17.7 99 0.1 W 6 9 3 5 1001.4 1001.4 0.0
26/05:30am 18.1 19.7 17.9 99 0.1 W 6 7 3 4 1001.2 1001.2 0.0
26/05:00am 18.5 20.3 18.2 98 0.2 W 6 7 3 4 1001.1 1001.1 0.0
26/04:30am 18.9 21.6 18.6 98 0.2 W 2 7 1 4 1001.2 1001.2 0.0
26/04:00am 18.9 20.6 18.6 98 0.2 WSW 7 9 4 5 1001.5 1001.5 0.0
26/03:30am 18.7 20.0 18.4 98 0.2 W 9 11 5 6 1001.7 1001.7 0.0
26/03:00am 18.6 19.7 18.1 97 0.3 WSW 9 13 5 7 1002.1 1002.1 0.0
26/02:30am 19.2 22.2 18.4 95 0.5 CALM 0 0 0 0 1002.3 1002.3 0.0
26/02:00am 19.5 22.5 18.5 94 0.6 CALM 0 0 0 0 1002.7 1002.7 0.0
26/01:30am 19.8 22.3 19.1 96 0.4 W 4 6 2 3 1003.1 1003.1 0.0
26/01:00am 19.6 21.7 18.9 96 0.4 W 6 9 3 5 1003.4 1003.4 0.0
26/12:30am 20.2 22.6 19.7 97 0.3 WNW 6 7 3 4 1003.9 1003.9 0.0
26/12:00am 20.7 23.2 19.9 95 0.5 WNW 6 7 3 4 1004.1 1004.1 0.0
 
Date/Time
EDT
Temp
°C
App
Temp
°C
Dew
Point
°C
Rel
Hum
%
Delta-T
°C
Wind Press
QNH
hPa
Press
MSL
hPa
Rain since
9am
mm
Dir  Spd
km/h
Gust
km/h
Spd
kts
Gust
kts
25/11:30pm 21.3 23.8 19.8 91 1.0 WNW 6 9 3 5 1004.4 1004.4 0.0
25/11:00pm 21.8 24.7 21.0 95 0.5 NNE 7 7 4 4 1004.6 1004.6 0.0
25/10:30pm 21.6 24.2 20.4 93 0.8 W 7 9 4 5 1004.8 1004.8 0.0
25/10:00pm 21.9 24.7 20.5 92 0.9 WNW 6 9 3 5 1004.8 1004.8 0.0
25/09:30pm 22.9 25.9 20.8 88 1.4 NNE 6 7 3 4 1004.6 1004.6 0.0
25/09:00pm 24.4 26.5 21.7 85 1.8 NE 13 19 7 10 1004.2 1004.2 0.0
25/08:30pm 24.6 26.3 21.7 84 1.9 NE 15 19 8 10 1004.0 1004.0 0.0
25/08:00pm 25.0 25.7 21.5 81 2.3 ENE 20 24 11 13 1004.0 1004.0 0.0
25/07:30pm 25.1 26.4 21.6 81 2.3 NE 17 24 9 13 1004.1 1004.1 0.0
25/07:00pm 26.0 26.4 21.7 77 2.9 NE 22 30 12 16 1003.9 1003.9 0.0
25/06:30pm 26.5 26.3 21.3 73 3.4 NE 24 32 13 17 1003.8 1003.8 0.0
25/06:00pm 27.2 26.7 20.8 68 4.2 ENE 24 28 13 15 1004.0 1004.0 0.0
25/05:30pm 27.7 27.5 20.5 65 4.7 ENE 22 32 12 17 1004.2 1004.2 0.0

Other formats

Comma delimited format used in spreadsheet applications
http://www.bom.gov.au/fwo/IDN60801/IDN60801.95748.axf

JavaScript Object Notation format (JSON) in row-major order
http://www.bom.gov.au/fwo/IDN60801/IDN60801.95748.json

Data quality

Most of these data are generated automatically and are frequently updated. Quality checks on data are not normally performed. It is possible for incorrect values to appear. Refer to information at About Latest Weather Observations and please check the disclaimer before using these data.